Time;durP1;ratioP1;P1;durP2;ratioP2;P2;SDS_P1;SDS_P2;PMS_P1;PMS_P2;Temp;Humidity;BMP_temperature;BMP_pressure;BME280_temperature;BME280_humidity;BME280_pressure;Samples;Min_cycle;Max_cycle;Signal;HPM_P1;HPM_P2
2022/08/10 00:00:22;;;;;;;5.87;2.47;;;16.30;30.60;;;;;;5060161;28;47048;-67
2022/08/10 00:02:49;;;;;;;16.50;3.67;;;16.20;30.50;;;;;;5059994;28;46633;-67
2022/08/10 00:05:14;;;;;;;5.73;3.53;;;16.20;30.50;;;;;;5060033;28;46330;-67
2022/08/10 00:07:40;;;;;;;4.90;3.20;;;16.10;30.40;;;;;;5060280;28;46924;-67
2022/08/10 00:10:07;;;;;;;4.73;3.10;;;16.10;30.40;;;;;;5057969;28;46461;-67
2022/08/10 00:12:32;;;;;;;10.87;3.90;;;16.10;30.40;;;;;;5059807;28;46556;-67
2022/08/10 00:14:59;;;;;;;7.27;3.20;;;16.00;29.50;;;;;;5058798;28;46385;-66
2022/08/10 00:17:25;;;;;;;6.47;3.70;;;15.90;30.30;;;;;;5059808;28;45845;-66
2022/08/10 00:19:50;;;;;;;8.30;2.67;;;15.90;30.40;;;;;;5058639;28;46447;-67
2022/08/10 00:22:16;;;;;;;6.03;3.10;;;15.90;30.90;;;;;;5060240;28;46368;-67
2022/08/10 00:24:42;;;;;;;10.13;3.10;;;15.80;31.00;;;;;;5055079;28;46378;-67
2022/08/10 00:27:07;;;;;;;6.37;3.20;;;15.80;31.30;;;;;;5059008;28;47135;-67
2022/08/10 00:29:33;;;;;;;6.10;3.43;;;15.80;31.30;;;;;;5058337;28;46435;-67
2022/08/10 00:31:58;;;;;;;6.97;3.27;;;15.70;31.60;;;;;;5060012;28;45793;-66
2022/08/10 00:34:28;;;;;;;4.50;3.10;;;15.60;31.00;;;;;;5058456;28;46388;-67
2022/08/10 00:36:54;;;;;;;15.53;3.37;;;15.60;32.00;;;;;;5058210;28;46638;-67
2022/08/10 00:39:20;;;;;;;7.00;3.70;;;15.50;32.30;;;;;;5060353;28;46389;-66
2022/08/10 00:41:46;;;;;;;5.43;3.90;;;15.40;32.40;;;;;;5058534;28;46441;-67
2022/08/10 00:44:11;;;;;;;8.43;3.70;;;15.30;31.80;;;;;;5059533;28;46428;-67
2022/08/10 00:46:37;;;;;;;5.93;3.70;;;15.30;32.90;;;;;;5060085;28;46453;-67
2022/08/10 00:49:02;;;;;;;7.43;3.33;;;15.30;33.10;;;;;;5063099;28;48329;-67
2022/08/10 00:51:28;;;;;;;6.63;3.77;;;15.30;33.20;;;;;;5063817;28;46357;-67
2022/08/10 00:53:54;;;;;;;12.93;4.00;;;15.20;33.30;;;;;;5063503;28;46405;-67
2022/08/10 00:56:19;;;;;;;10.13;4.23;;;15.20;32.80;;;;;;5061422;28;46576;-66
2022/08/10 00:58:46;;;;;;;5.07;3.27;;;15.20;33.90;;;;;;5060540;28;47111;-67
2022/08/10 01:01:12;;;;;;;6.30;3.23;;;15.10;34.10;;;;;;5063570;28;46626;-67
2022/08/10 01:03:38;;;;;;;9.57;4.30;;;15.10;34.10;;;;;;5062807;28;46390;-67
2022/08/10 01:06:12;;;;;;;12.00;3.60;;;15.10;33.50;;;;;;5063489;28;46510;-68
2022/08/10 01:08:53;;;;;;;9.13;3.37;;;15.10;34.40;;;;;;5060585;28;46247;-67
2022/08/10 01:11:34;;;;;;;6.80;4.00;;;15.10;34.60;;;;;;5061334;28;46686;-67
2022/08/10 01:14:14;;;;;;;7.60;4.03;;;15.00;34.50;;;;;;5062675;28;46436;-67
2022/08/10 01:16:52;;;;;;;5.60;3.70;;;15.10;34.80;;;;;;5061546;28;45799;-67
2022/08/10 01:19:52;;;;;;;6.40;3.87;;;15.00;34.60;;;;;;5061561;28;47442;-67
2022/08/10 01:22:36;;;;;;;8.00;4.30;;;15.00;35.00;;;;;;5062200;28;46299;-67
2022/08/10 01:25:23;;;;;;;12.10;4.20;;;14.90;35.00;;;;;;5060276;28;46405;-66
2022/08/10 01:28:12;;;;;;;7.23;3.60;;;14.90;35.40;;;;;;5060666;28;46705;-66
2022/08/10 01:30:41;;;;;;;6.77;3.50;;;14.90;35.40;;;;;;5060007;28;46563;-66
2022/08/10 01:33:10;;;;;;;5.03;3.73;;;14.90;35.20;;;;;;5059189;28;46452;-66
2022/08/10 01:35:52;;;;;;;7.50;3.87;;;14.80;35.20;;;;;;5059583;28;46492;-67
2022/08/10 01:38:30;;;;;;;4.93;3.37;;;14.80;35.50;;;;;;5060646;28;46476;-67
2022/08/10 01:41:10;;;;;;;5.83;4.20;;;14.80;35.60;;;;;;5061728;28;46987;-67
2022/08/10 01:43:42;;;;;;;5.90;4.20;;;14.80;35.80;;;;;;5059058;28;46422;-67
2022/08/10 01:46:10;;;;;;;5.87;3.97;;;14.80;35.00;;;;;;5060212;28;46563;-67
2022/08/10 01:48:39;;;;;;;5.37;4.00;;;14.70;35.70;;;;;;5061521;28;45928;-67
2022/08/10 01:51:23;;;;;;;8.60;4.17;;;14.70;36.10;;;;;;5061962;28;48247;-67
2022/08/10 01:54:02;;;;;;;9.93;4.23;;;14.70;36.60;;;;;;5061204;28;45823;-66
2022/08/10 01:56:37;;;;;;;6.50;4.20;;;14.60;36.40;;;;;;5059444;28;46584;-67
2022/08/10 01:59:22;;;;;;;5.80;4.00;;;14.60;36.40;;;;;;5059866;28;46548;-65
2022/08/10 02:01:54;;;;;;;7.10;4.37;;;14.60;36.70;;;;;;5059181;28;46747;-66
2022/08/10 02:04:21;;;;;;;5.83;4.10;;;14.60;35.50;;;;;;5060933;28;46405;-66
2022/08/10 02:06:50;;;;;;;8.43;4.30;;;14.60;36.40;;;;;;5059737;28;46302;-66
2022/08/10 02:09:28;;;;;;;6.50;3.60;;;14.60;36.60;;;;;;5060772;28;46453;-67
2022/08/10 02:11:59;;;;;;;7.90;4.53;;;14.60;36.60;;;;;;5061197;28;47550;-66
2022/08/10 02:14:31;;;;;;;7.93;3.80;;;14.90;35.80;;;;;;5059778;28;46554;-66
2022/08/10 02:16:59;;;;;;;7.50;3.77;;;14.60;36.60;;;;;;5060360;28;47378;-66
2022/08/10 02:19:26;;;;;;;7.03;4.30;;;14.50;36.70;;;;;;5060913;28;46362;-66
2022/08/10 02:21:53;;;;;;;7.37;3.87;;;14.50;36.90;;;;;;5058918;28;46711;-66
2022/08/10 02:24:21;;;;;;;4.30;3.30;;;14.50;36.40;;;;;;5059088;28;46764;-66
2022/08/10 02:26:49;;;;;;;4.90;3.80;;;14.40;37.30;;;;;;5060778;28;46501;-67
2022/08/10 02:29:16;;;;;;;9.23;3.70;;;14.40;37.40;;;;;;5059081;28;46493;-66
2022/08/10 02:31:43;;;;;;;7.43;4.10;;;14.40;37.60;;;;;;5060731;28;47438;-66
2022/08/10 02:34:11;;;;;;;5.37;3.70;;;14.40;36.60;;;;;;5059081;28;46446;-66
2022/08/10 02:36:43;;;;;;;8.53;4.07;;;14.40;37.70;;;;;;5059332;28;46477;-66
2022/08/10 02:39:10;;;;;;;5.80;3.97;;;14.40;37.80;;;;;;5060548;28;46824;-67
2022/08/10 02:42:00;;;;;;;6.20;4.10;;;14.40;37.90;;;;;;5059475;28;47237;-66
2022/08/10 02:44:44;;;;;;;6.93;4.53;;;14.40;37.10;;;;;;5058744;28;46556;-67
2022/08/10 02:47:27;;;;;;;6.43;4.47;;;14.40;38.20;;;;;;5056539;28;46697;-67
2022/08/10 02:50:16;;;;;;;5.20;3.83;;;14.40;38.20;;;;;;5061021;28;45786;-65
2022/08/10 02:52:49;;;;;;;9.90;3.87;;;14.40;38.00;;;;;;5047904;28;46506;-68
2022/08/10 02:55:25;;;;;;;8.57;4.13;;;14.40;38.10;;;;;;5060686;28;46573;-67
2022/08/10 02:57:54;;;;;;;5.23;3.87;;;14.40;38.30;;;;;;5056218;28;46394;-67
2022/08/10 03:00:23;;;;;;;7.80;3.93;;;14.40;38.20;;;;;;5060024;28;45995;-67
2022/08/10 03:02:50;;;;;;;6.40;4.33;;;14.30;38.20;;;;;;5060599;28;46570;-67
2022/08/10 03:05:18;;;;;;;6.63;4.70;;;14.30;38.30;;;;;;5060275;28;46426;-66
2022/08/10 03:07:51;;;;;;;7.33;3.70;;;14.30;38.30;;;;;;5059117;28;46631;-67
2022/08/10 03:10:32;;;;;;;6.47;3.93;;;14.20;38.30;;;;;;5056352;28;46379;-66
2022/08/10 03:13:04;;;;;;;6.40;3.80;;;14.20;38.70;;;;;;5059749;28;46506;-66
2022/08/10 03:15:32;;;;;;;7.60;3.97;;;14.20;38.70;;;;;;5057614;28;46357;-67
2022/08/10 03:17:59;;;;;;;7.80;4.20;;;14.20;38.80;;;;;;5059167;28;46451;-67
2022/08/10 03:20:32;;;;;;;9.50;4.43;;;14.10;38.90;;;;;;5058029;28;46472;-67
2022/08/10 03:22:58;;;;;;;7.50;3.93;;;14.10;39.00;;;;;;5060999;28;47044;-67
2022/08/10 03:25:27;;;;;;;7.57;3.77;;;14.10;39.00;;;;;;5060408;28;46403;-67
2022/08/10 03:27:53;;;;;;;9.57;4.20;;;14.00;39.10;;;;;;5060559;28;46930;-67
2022/08/10 03:30:19;;;;;;;7.90;4.23;;;14.10;39.20;;;;;;5064864;28;46385;-68
2022/08/10 03:32:46;;;;;;;11.30;4.27;;;14.00;39.10;;;;;;5060217;28;46260;-67
2022/08/10 03:35:12;;;;;;;5.60;4.20;;;14.00;39.20;;;;;;5057736;28;45850;-67
2022/08/10 03:37:38;;;;;;;9.00;3.90;;;14.00;39.20;;;;;;5060385;28;46516;-66
2022/08/10 03:40:06;;;;;;;7.47;4.57;;;13.90;39.10;;;;;;5060631;28;46503;-67
2022/08/10 03:42:34;;;;;;;7.90;4.97;;;13.90;39.10;;;;;;5059365;28;46497;-65
2022/08/10 03:45:04;;;;;;;11.70;4.20;;;13.90;39.30;;;;;;5057959;28;46430;-67
2022/08/10 03:47:31;;;;;;;7.17;4.37;;;13.90;39.40;;;;;;5057683;28;46461;-67
2022/08/10 03:49:57;;;;;;;5.60;4.10;;;13.90;39.40;;;;;;5059577;28;46424;-66
2022/08/10 03:52:24;;;;;;;7.67;4.30;;;13.90;39.50;;;;;;5060598;28;47054;-68
2022/08/10 03:54:51;;;;;;;8.30;4.40;;;13.80;39.60;;;;;;5059104;28;45787;-66
2022/08/10 03:57:17;;;;;;;6.87;4.40;;;13.80;39.60;;;;;;5059608;28;46780;-67
2022/08/10 03:59:43;;;;;;;5.73;4.23;;;13.90;39.90;;;;;;5058187;28;46321;-67
2022/08/10 04:02:10;;;;;;;5.50;3.87;;;13.90;39.80;;;;;;5059096;28;46389;-67
2022/08/10 04:04:35;;;;;;;6.40;4.40;;;14.00;39.90;;;;;;5058412;28;45885;-67
2022/08/10 04:07:02;;;;;;;7.17;4.30;;;14.00;39.90;;;;;;5059489;28;46510;-67
2022/08/10 04:09:33;;;;;;;6.53;4.33;;;14.00;39.80;;;;;;5060450;28;46652;-66
2022/08/10 04:11:59;;;;;;;6.40;4.30;;;14.00;39.90;;;;;;5058362;28;46669;-67
2022/08/10 04:14:24;;;;;;;12.40;3.80;;;14.10;39.40;;;;;;5059015;28;46472;-66
2022/08/10 04:16:50;;;;;;;6.87;3.90;;;14.10;40.50;;;;;;5058817;28;45921;-67
2022/08/10 04:19:18;;;;;;;5.70;3.30;;;14.10;40.20;;;;;;5057767;28;46645;-67
2022/08/10 04:21:50;;;;;;;7.47;4.37;;;14.10;41.30;;;;;;5062273;28;46628;-67
2022/08/10 04:24:20;;;;;;;5.90;4.20;;;14.20;38.90;;;;;;5061704;28;46351;-67
2022/08/10 04:26:46;;;;;;;6.83;4.27;;;14.20;40.00;;;;;;5062541;28;46414;-67
2022/08/10 04:29:12;;;;;;;7.00;4.00;;;14.20;39.80;;;;;;5062659;28;46502;-67
2022/08/10 04:31:39;;;;;;;6.10;3.90;;;14.30;39.80;;;;;;5062942;28;47444;-66
2022/08/10 04:34:06;;;;;;;7.03;3.90;;;14.30;39.90;;;;;;5063271;28;46433;-67
2022/08/10 04:36:32;;;;;;;4.70;3.70;;;14.30;39.80;;;;;;5060773;28;46644;-67
2022/08/10 04:38:59;;;;;;;6.93;4.03;;;14.30;39.70;;;;;;5062209;28;46366;-67
2022/08/10 04:41:25;;;;;;;6.57;4.00;;;14.40;39.80;;;;;;5060794;28;47103;-67
2022/08/10 04:43:50;;;;;;;7.87;3.80;;;14.40;39.50;;;;;;5063058;28;46351;-67
2022/08/10 04:46:16;;;;;;;8.50;4.10;;;14.50;40.80;;;;;;5060430;28;46477;-67
2022/08/10 04:48:42;;;;;;;6.30;3.93;;;14.50;39.50;;;;;;5059924;28;46664;-66
2022/08/10 04:51:13;;;;;;;10.20;3.83;;;14.60;39.40;;;;;;5063378;28;46331;-67
2022/08/10 04:53:39;;;;;;;6.60;3.77;;;14.60;39.20;;;;;;5059441;28;46433;-67
2022/08/10 04:56:07;;;;;;;11.60;4.27;;;14.70;39.20;;;;;;5061496;28;46339;-67
2022/08/10 04:58:36;;;;;;;8.90;4.20;;;14.70;39.30;;;;;;5062434;28;46731;-66
2022/08/10 05:01:02;;;;;;;7.80;3.83;;;14.80;39.00;;;;;;5062152;28;46672;-66
2022/08/10 05:03:27;;;;;;;7.20;3.43;;;14.90;38.70;;;;;;5058590;28;47100;-66
2022/08/10 05:05:53;;;;;;;5.67;3.50;;;15.40;38.10;;;;;;5062748;28;46311;-67
2022/08/10 05:08:18;;;;;;;9.73;2.87;;;16.70;37.20;;;;;;5062747;28;46652;-67
2022/08/10 05:10:44;;;;;;;5.93;3.00;;;17.60;35.30;;;;;;5062523;28;46094;-67
2022/08/10 05:13:10;;;;;;;8.87;2.80;;;18.30;33.80;;;;;;5063225;28;46413;-67
2022/08/10 05:15:35;;;;;;;8.30;4.60;;;19.20;32.10;;;;;;5062839;28;46348;-67
2022/08/10 05:18:01;;;;;;;6.60;3.33;;;19.60;30.80;;;;;;5062642;28;46330;-67
2022/08/10 05:20:27;;;;;;;9.00;3.23;;;20.20;29.90;;;;;;5062238;28;46418;-67
2022/08/10 05:22:52;;;;;;;7.03;3.30;;;20.60;28.40;;;;;;5063254;28;46419;-67
2022/08/10 05:25:19;;;;;;;3.70;2.87;;;20.90;27.10;;;;;;5062816;28;45804;-68
2022/08/10 05:27:46;;;;;;;15.20;4.20;;;21.30;26.70;;;;;;5062176;28;46377;-68
2022/08/10 05:30:16;;;;;;;5.20;2.90;;;21.90;24.90;;;;;;5062559;28;46427;-68
2022/08/10 05:32:42;;;;;;;11.67;2.70;;;22.20;24.00;;;;;;5059061;28;46484;-67
2022/08/10 05:35:08;;;;;;;6.10;2.40;;;22.40;23.00;;;;;;5061378;28;46274;-68
2022/08/10 05:37:34;;;;;;;10.53;2.53;;;22.50;21.90;;;;;;5060915;28;45842;-68
2022/08/10 05:40:03;;;;;;;5.57;2.47;;;22.80;21.30;;;;;;5061592;28;46420;-68
2022/08/10 05:42:28;;;;;;;8.70;2.90;;;23.10;20.20;;;;;;5061381;28;46392;-68
2022/08/10 05:44:55;;;;;;;5.77;2.90;;;23.30;20.00;;;;;;5062340;28;46431;-67
2022/08/10 05:47:20;;;;;;;4.67;2.33;;;23.60;18.80;;;;;;5061641;28;46730;-68
2022/08/10 05:49:47;;;;;;;6.70;2.20;;;24.00;18.00;;;;;;5063306;28;46393;-68
2022/08/10 05:52:16;;;;;;;4.47;2.97;;;24.30;17.90;;;;;;5076469;28;45787;-67
2022/08/10 05:54:42;;;;;;;4.67;2.37;;;24.50;16.80;;;;;;5071670;28;46403;-67
2022/08/10 05:57:09;;;;;;;10.03;2.37;;;24.50;15.50;;;;;;5059744;28;46631;-65
2022/08/10 05:59:38;;;;;;;7.03;3.40;;;24.60;15.70;;;;;;5062834;28;46395;-69
2022/08/10 06:02:06;;;;;;;3.93;2.30;;;24.70;15.40;;;;;;5061148;28;46381;-67
2022/08/10 06:04:40;;;;;;;5.83;2.70;;;24.90;14.80;;;;;;5053361;28;46428;-69
2022/08/10 06:07:07;;;;;;;13.90;2.60;;;24.90;14.60;;;;;;5059245;28;46598;-69
2022/08/10 06:09:35;;;;;;;5.70;2.67;;;24.90;14.60;;;;;;5059222;28;47123;-71
2022/08/10 06:12:01;;;;;;;5.80;2.27;;;24.60;14.50;;;;;;5059322;28;46763;-70
2022/08/10 06:17:17;;;;;;;6.53;2.43;;;24.70;14.10;;;;;;5059337;28;46011;-69
2022/08/10 06:19:43;;;;;;;6.07;2.47;;;25.10;13.30;;;;;;5060541;28;46101;-70
2022/08/10 06:22:10;;;;;;;5.10;2.63;;;24.80;12.90;;;;;;5060849;28;46318;-71
2022/08/10 06:24:40;;;;;;;3.90;2.37;;;24.80;13.00;;;;;;5060885;28;46359;-70
2022/08/10 06:27:08;;;;;;;6.70;2.77;;;25.00;12.60;;;;;;5057427;28;46416;-68
2022/08/10 06:29:39;;;;;;;8.90;2.90;;;24.90;12.00;;;;;;5059542;28;46548;-69
2022/08/10 06:32:07;;;;;;;5.30;3.00;;;24.60;12.20;;;;;;5060438;28;46459;-71
2022/08/10 06:34:42;;;;;;;4.77;2.90;;;23.40;14.80;;;;;;5060301;28;46667;-70
2022/08/10 06:37:09;;;;;;;4.87;2.60;;;22.30;17.50;;;;;;5059369;28;45920;-70
2022/08/10 06:39:35;;;;;;;7.20;2.83;;;21.60;19.90;;;;;;5058917;28;47117;-71
2022/08/10 06:42:04;;;;;;;6.87;3.13;;;21.30;20.00;;;;;;5058707;28;46456;-70
2022/08/10 06:44:40;;;;;;;4.53;2.50;;;23.10;13.60;;;;;;5059197;28;46001;-70
2022/08/10 06:47:12;;;;;;;8.33;3.03;;;23.30;13.70;;;;;;5058976;28;45865;-71
2022/08/10 06:49:38;;;;;;;9.70;2.80;;;23.90;13.10;;;;;;5060547;28;47149;-69
2022/08/10 06:52:06;;;;;;;8.97;2.73;;;24.40;12.30;;;;;;5060439;28;46510;-68
2022/08/10 06:54:32;;;;;;;10.83;2.90;;;24.70;12.80;;;;;;5060421;28;46528;-68
2022/08/10 06:57:00;;;;;;;5.07;2.77;;;25.00;11.30;;;;;;5058663;28;46468;-70
2022/08/10 06:59:39;;;;;;;12.33;2.63;;;25.00;11.10;;;;;;5059600;28;47349;-68
2022/08/10 07:02:28;;;;;;;6.50;2.53;;;24.90;11.00;;;;;;5060017;28;46585;-71
2022/08/10 07:04:59;;;;;;;4.37;2.20;;;25.00;10.60;;;;;;5059730;28;46409;-69
2022/08/10 07:07:30;;;;;;;4.40;2.53;;;24.30;13.20;;;;;;5058118;28;46474;-70
2022/08/10 07:09:57;;;;;;;4.97;2.83;;;23.00;15.30;;;;;;5058833;28;46424;-70
2022/08/10 07:12:24;;;;;;;5.00;2.63;;;22.10;17.50;;;;;;5060235;28;45793;-70
2022/08/10 07:14:52;;;;;;;9.23;2.63;;;21.60;18.70;;;;;;5060181;28;46664;-70
2022/08/10 07:17:25;;;;;;;5.70;2.90;;;21.30;19.60;;;;;;5058136;28;46468;-69
2022/08/10 07:19:54;;;;;;;7.43;2.73;;;21.10;20.00;;;;;;5058984;28;47246;-68
2022/08/10 07:22:26;;;;;;;7.43;2.80;;;20.90;20.20;;;;;;5058522;28;46442;-70
2022/08/10 07:24:54;;;;;;;15.80;2.90;;;20.80;20.60;;;;;;5059514;28;45863;-69
2022/08/10 07:27:22;;;;;;;7.10;2.23;;;20.80;20.90;;;;;;5058547;28;46666;-68
2022/08/10 07:29:49;;;;;;;9.10;2.60;;;20.90;21.00;;;;;;5061217;28;47214;-69
2022/08/10 07:32:18;;;;;;;8.53;2.80;;;21.20;21.00;;;;;;5059500;28;46060;-68
2022/08/10 07:34:45;;;;;;;8.00;2.83;;;21.40;20.80;;;;;;5058858;28;46564;-68
2022/08/10 07:37:11;;;;;;;8.90;2.30;;;21.40;20.70;;;;;;5061539;28;46538;-68
2022/08/10 07:39:41;;;;;;;9.93;2.77;;;21.30;20.50;;;;;;5059457;28;48133;-69
2022/08/10 07:42:08;;;;;;;7.43;2.33;;;21.20;20.60;;;;;;5059096;28;46632;-68
2022/08/10 07:44:35;;;;;;;6.83;2.70;;;21.30;20.80;;;;;;5059108;28;46401;-70
2022/08/10 07:47:03;;;;;;;11.37;2.80;;;21.40;20.60;;;;;;5058051;28;46877;-69
2022/08/10 07:49:37;;;;;;;16.60;3.90;;;21.40;20.50;;;;;;5058560;28;47117;-69
2022/08/10 07:52:06;;;;;;;8.20;2.47;;;21.40;20.20;;;;;;5060524;28;46543;-70
2022/08/10 07:54:39;;;;;;;10.97;3.43;;;21.50;20.30;;;;;;5058610;28;46738;-69
2022/08/10 07:57:09;;;;;;;6.30;2.53;;;21.70;20.20;;;;;;5058761;28;45893;-68
2022/08/10 07:59:38;;;;;;;5.20;2.73;;;21.80;20.10;;;;;;5062844;28;47385;-69
2022/08/10 08:02:17;;;;;;;4.80;2.73;;;21.80;19.60;;;;;;5060764;28;46403;-67
2022/08/10 08:04:43;;;;;;;5.63;3.03;;;21.70;19.20;;;;;;5061454;28;46390;-67
2022/08/10 08:07:11;;;;;;;6.97;2.77;;;21.80;19.40;;;;;;5062269;28;45905;-68
2022/08/10 08:09:37;;;;;;;12.33;2.50;;;21.90;19.20;;;;;;5061134;28;46492;-66
2022/08/10 08:12:05;;;;;;;6.20;2.30;;;21.90;18.60;;;;;;5062782;28;46444;-68
2022/08/10 08:14:32;;;;;;;10.00;2.07;;;22.00;17.60;;;;;;5060396;28;46330;-67
2022/08/10 08:16:58;;;;;;;5.40;2.70;;;22.00;19.30;;;;;;5061508;28;46499;-68
2022/08/10 08:19:25;;;;;;;4.47;2.00;;;22.10;18.20;;;;;;5059932;28;46866;-68
2022/08/10 08:21:53;;;;;;;4.80;2.10;;;22.20;18.00;;;;;;5061709;28;46400;-69
2022/08/10 08:24:20;;;;;;;6.53;2.83;;;22.50;16.70;;;;;;5062157;28;47144;-68
2022/08/10 08:26:47;;;;;;;4.77;2.23;;;22.50;17.50;;;;;;5060136;28;46629;-69
2022/08/10 08:29:14;;;;;;;8.70;2.30;;;22.50;16.90;;;;;;5060301;28;46480;-68
2022/08/10 08:31:42;;;;;;;7.20;2.50;;;22.60;17.00;;;;;;5062479;28;46395;-69
2022/08/10 08:34:08;;;;;;;7.77;2.17;;;22.70;16.90;;;;;;5062281;28;46616;-69
2022/08/10 08:36:37;;;;;;;7.83;2.33;;;22.90;15.90;;;;;;5061703;28;47084;-68
2022/08/10 08:39:03;;;;;;;6.50;2.20;;;23.10;16.50;;;;;;5061957;28;46492;-69
2022/08/10 08:41:55;;;;;;;6.47;2.33;;;23.20;16.20;;;;;;5060719;28;46500;-69
2022/08/10 08:44:49;;;;;;;9.83;2.40;;;23.20;15.00;;;;;;5061290;28;46351;-69
2022/08/10 08:47:39;;;;;;;5.93;2.43;;;23.20;15.80;;;;;;5060859;28;46370;-69
2022/08/10 08:50:30;;;;;;;4.20;1.80;;;23.10;15.60;;;;;;5058781;28;47295;-68
2022/08/10 08:53:13;;;;;;;4.40;1.70;;;23.10;15.70;;;;;;5059159;28;47403;-69
2022/08/10 08:55:53;;;;;;;4.70;2.40;;;23.40;15.30;;;;;;5061610;28;46913;-68
2022/08/10 08:58:34;;;;;;;6.57;2.03;;;23.30;14.30;;;;;;5057823;28;46770;-67
2022/08/10 09:01:12;;;;;;;4.27;2.10;;;23.20;14.20;;;;;;5059496;28;48430;-68
2022/08/10 09:03:43;;;;;;;9.13;2.17;;;23.30;14.20;;;;;;5066982;28;46370;-69
2022/08/10 09:06:41;;;;;;;4.63;2.20;;;23.40;13.40;;;;;;5060971;28;46518;-67
2022/08/10 09:09:40;;;;;;;10.67;3.03;;;23.40;13.70;;;;;;5059401;28;46345;-70
2022/08/10 09:12:31;;;;;;;9.50;2.23;;;23.40;13.70;;;;;;5059560;28;46298;-72
2022/08/10 09:15:07;;;;;;;4.47;2.00;;;23.60;13.90;;;;;;5059344;28;46420;-66
2022/08/10 09:17:52;;;;;;;7.77;2.17;;;23.60;14.80;;;;;;5059510;28;46581;-65
2022/08/10 09:20:45;;;;;;;11.63;2.43;;;23.50;12.90;;;;;;5060253;28;46432;-65
2022/08/10 09:23:44;;;;;;;5.73;2.13;;;23.50;13.30;;;;;;5052832;28;46163;-67
2022/08/10 09:26:17;;;;;;;4.13;1.70;;;23.60;11.50;;;;;;5059745;28;46379;-67
2022/08/10 09:28:43;;;;;;;9.40;2.17;;;23.60;11.90;;;;;;5060915;28;46520;-67
2022/08/10 09:31:10;;;;;;;3.30;1.70;;;23.60;11.90;;;;;;5062741;28;46619;-66
2022/08/10 09:33:54;;;;;;;6.47;2.37;;;23.70;11.90;;;;;;5062203;28;47093;-67
2022/08/10 09:36:32;;;;;;;10.93;1.97;;;23.80;10.70;;;;;;5058838;28;46652;-66
2022/08/10 09:39:03;;;;;;;3.67;2.00;;;23.90;11.20;;;;;;5060374;28;46632;-66
2022/08/10 09:41:43;;;;;;;5.97;2.10;;;23.80;10.90;;;;;;5060659;28;46965;-66
2022/08/10 09:44:13;;;;;;;7.67;1.80;;;;;;;;;;5060948;28;46460;-66
2022/08/10 09:47:04;;;;;;;4.30;2.00;;;23.90;9.30;;;;;;5058731;28;46496;-66
2022/08/10 09:49:59;;;;;;;11.83;1.90;;;23.90;10.00;;;;;;5060627;28;46713;-68
2022/08/10 09:52:50;;;;;;;12.33;1.80;;;24.10;9.80;;;;;;5061603;28;45852;-67
2022/08/10 09:55:39;;;;;;;6.93;2.03;;;24.00;8.20;;;;;;5058917;28;47190;-66
2022/08/10 09:58:30;;;;;;;3.67;1.53;;;24.00;9.30;;;;;;5058858;28;46404;-66
2022/08/10 10:01:40;;;;;;;4.30;1.70;;;24.20;9.60;;;;;;5059003;28;46373;-66
2022/08/10 10:04:28;;;;;;;5.00;1.57;;;24.40;9.20;;;;;;5060032;28;46975;-65
2022/08/10 10:07:04;;;;;;;3.90;1.70;;;24.40;8.10;;;;;;5056978;28;46473;-66
2022/08/10 10:09:51;;;;;;;9.00;1.80;;;24.40;8.60;;;;;;5058750;28;46436;-67
2022/08/10 10:12:41;;;;;;;6.27;1.83;;;24.40;8.30;;;;;;5057831;28;46398;-69
2022/08/10 10:15:47;;;;;;;9.10;1.87;;;24.40;7.70;;;;;;5060984;28;45827;-68
2022/08/10 10:18:17;;;;;;;9.93;1.83;;;24.50;8.50;;;;;;5058047;28;49250;-66
2022/08/10 10:21:14;;;;;;;3.30;1.70;;;24.60;8.20;;;;;;5060150;28;46427;-67
2022/08/10 10:24:05;;;;;;;10.70;1.70;;;24.60;8.00;;;;;;5060293;28;46452;-67
2022/08/10 10:26:41;;;;;;;5.60;1.77;;;24.80;7.30;;;;;;5059803;28;46445;-66
2022/08/10 10:29:32;;;;;;;9.33;1.97;;;24.80;7.90;;;;;;5057262;28;47298;-67
2022/08/10 10:32:32;;;;;;;6.20;1.90;;;24.90;7.20;;;;;;5060199;28;46499;-66
2022/08/10 10:35:22;;;;;;;14.60;2.00;;;24.70;6.20;;;;;;5058654;28;46402;-68
2022/08/10 10:37:50;;;;;;;4.63;1.60;;;24.50;6.70;;;;;;5059357;28;46401;-68
2022/08/10 10:40:18;;;;;;;4.57;1.60;;;24.40;6.80;;;;;;5059481;28;46557;-66
2022/08/10 10:43:20;;;;;;;3.93;1.90;;;24.30;9.50;;;;;;5060750;28;46395;-70
2022/08/10 10:45:55;;;;;;;5.57;1.90;;;24.60;7.00;;;;;;5060166;28;47507;-68
2022/08/10 10:49:01;;;;;;;3.63;1.90;;;24.60;11.00;;;;;;5057778;28;46474;-68
2022/08/10 10:51:52;;;;;;;4.83;2.00;;;24.70;7.00;;;;;;5057650;28;46671;-67
2022/08/10 10:54:34;;;;;;;4.50;1.60;;;24.90;16.20;;;;;;5058272;28;47300;-67
2022/08/10 10:57:14;;;;;;;6.73;1.67;;;24.60;12.10;;;;;;5059839;28;46417;-66
2022/08/10 10:59:54;;;;;;;6.33;2.30;;;24.70;19.00;;;;;;5055790;28;46370;-66
2022/08/10 11:02:41;;;;;;;3.37;1.50;;;25.00;6.40;;;;;;5059110;28;46625;-66
2022/08/10 11:05:16;;;;;;;11.93;1.60;;;25.00;6.00;;;;;;5059701;28;46372;-65
2022/08/10 11:08:11;;;;;;;5.10;1.70;;;25.00;6.10;;;;;;5058084;28;46429;-66
2022/08/10 11:10:50;;;;;;;5.40;1.70;;;24.80;6.30;;;;;;5058799;28;46609;-65
2022/08/10 11:14:00;;;;;;;6.77;1.80;;;25.00;7.00;;;;;;5058245;28;47067;-65
2022/08/10 11:16:43;;;;;;;5.57;1.73;;;24.80;11.60;;;;;;5047218;28;46412;-65
2022/08/10 11:19:18;;;;;;;9.27;1.90;;;24.80;8.30;;;;;;5056551;28;45949;-67
2022/08/10 11:22:05;;;;;;;9.10;1.80;;;25.10;11.30;;;;;;5060031;28;46663;-64
2022/08/10 11:24:57;;;;;;;3.73;1.73;;;24.90;7.00;;;;;;5058934;28;47148;-64
2022/08/10 11:27:54;;;;;;;4.23;1.83;;;24.80;6.70;;;;;;5057490;28;46433;-67
2022/08/10 11:30:41;;;;;;;3.90;1.47;;;24.80;6.40;;;;;;5050376;28;46322;-66
2022/08/10 11:33:24;;;;;;;7.00;1.50;;;25.10;8.40;;;;;;5057907;28;46862;-69
2022/08/10 11:35:59;;;;;;;4.77;1.90;;;25.00;6.00;;;;;;5058504;28;46369;-68
2022/08/10 11:38:31;;;;;;;6.47;1.77;;;25.00;6.20;;;;;;5059819;28;46568;-65
2022/08/10 11:41:24;;;;;;;3.40;1.73;;;25.00;6.80;;;;;;5060134;28;46346;-69
2022/08/10 11:44:24;;;;;;;3.40;1.40;;;25.00;6.20;;;;;;5063350;28;46350;-66
2022/08/10 11:46:55;;;;;;;5.80;1.33;;;24.90;5.70;;;;;;5057442;28;46453;-66
2022/08/10 11:49:36;;;;;;;7.57;1.57;;;24.80;6.60;;;;;;5060072;28;46460;-69
2022/08/10 11:52:09;;;;;;;3.97;1.50;;;24.90;4.70;;;;;;5058582;28;46376;-68
2022/08/10 11:54:45;;;;;;;13.97;1.60;;;24.90;4.90;;;;;;5058136;28;46413;-69
2022/08/10 11:57:11;;;;;;;4.93;1.60;;;24.90;5.10;;;;;;5057314;28;46126;-68
2022/08/10 11:59:57;;;;;;;3.93;1.40;;;24.90;5.00;;;;;;5057763;28;46442;-69
2022/08/10 12:02:37;;;;;;;9.30;2.00;;;24.90;5.50;;;;;;5058833;28;46495;-66
2022/08/10 12:05:29;;;;;;;5.33;1.70;;;25.00;5.70;;;;;;5059029;28;46548;-68
2022/08/10 12:07:58;;;;;;;4.43;1.60;;;24.90;6.20;;;;;;5054467;28;46903;-66
2022/08/10 12:10:25;;;;;;;5.53;2.03;;;25.20;6.50;;;;;;5058259;28;46642;-66
2022/08/10 12:13:08;;;;;;;7.77;1.77;;;25.10;6.50;;;;;;5058517;28;45842;-66
2022/08/10 12:15:37;;;;;;;6.37;1.40;;;24.80;6.40;;;;;;5057074;28;46796;-68
2022/08/10 12:18:12;;;;;;;5.27;1.80;;;25.20;6.90;;;;;;5057516;28;46411;-68
2022/08/10 12:20:42;;;;;;;6.00;1.70;;;25.20;6.70;;;;;;5056361;28;46361;-69
2022/08/10 12:23:14;;;;;;;4.20;1.30;;;25.10;6.40;;;;;;5059213;28;45716;-68
2022/08/10 12:25:55;;;;;;;5.53;1.77;;;25.10;5.60;;;;;;5058256;28;45943;-67
2022/08/10 12:28:37;;;;;;;4.80;1.57;;;25.00;5.60;;;;;;5055798;28;47273;-68
2022/08/10 12:31:07;;;;;;;2.70;1.50;;;25.00;5.60;;;;;;5058288;28;46454;-66
2022/08/10 12:33:49;;;;;;;6.07;1.63;;;25.30;5.80;;;;;;5058389;28;46548;-67
2022/08/10 12:36:22;;;;;;;6.03;1.67;;;25.10;3.50;;;;;;5057945;28;45978;-67
2022/08/10 12:39:16;;;;;;;2.93;1.47;;;25.10;3.70;;;;;;5057361;28;46376;-67
2022/08/10 12:41:50;;;;;;;7.13;1.53;;;25.10;3.80;;;;;;5060070;28;46490;-67
2022/08/10 12:44:56;;;;;;;7.30;1.50;;;25.20;3.90;;;;;;5058490;28;45975;-65
2022/08/10 12:47:51;;;;;;;4.83;1.80;;;25.20;3.90;;;;;;5049944;28;46573;-68
2022/08/10 12:50:38;;;;;;;5.70;1.60;;;25.20;4.10;;;;;;5059259;28;46449;-69
2022/08/10 12:53:24;;;;;;;10.53;1.77;;;25.20;4.70;;;;;;5059782;28;46316;-68
2022/08/10 12:55:50;;;;;;;5.60;1.70;;;25.20;4.90;;;;;;5060835;28;45997;-67
2022/08/10 12:58:18;;;;;;;6.33;1.67;;;25.20;4.90;;;;;;5059939;28;45901;-66
2022/08/10 13:00:44;;;;;;;2.90;1.50;;;25.30;4.70;;;;;;5061581;28;46380;-65
2022/08/10 13:03:11;;;;;;;5.10;1.40;;;25.40;4.70;;;;;;5060596;28;46508;-71
2022/08/10 13:05:39;;;;;;;4.63;1.40;;;25.40;3.20;;;;;;5061434;28;46374;-69
2022/08/10 13:11:02;;;;;;;5.10;1.30;;;25.40;3.80;;;;;;5062001;28;46433;-67
2022/08/10 13:13:32;;;;;;;3.00;1.60;;;25.80;3.90;;;;;;5059275;28;46804;-69
2022/08/10 13:15:58;;;;;;;2.83;1.57;;;25.50;4.10;;;;;;5059495;28;46421;-69
2022/08/10 13:18:36;;;;;;;7.07;1.43;;;25.50;4.00;;;;;;5061142;28;46496;-69
2022/08/10 13:21:08;;;;;;;4.73;1.30;;;25.50;3.90;;;;;;5061703;28;46417;-68
2022/08/10 13:23:52;;;;;;;3.63;1.50;;;25.60;4.30;;;;;;5062304;28;46646;-67
2022/08/10 13:26:21;;;;;;;7.53;1.83;;;25.80;5.10;;;;;;5059900;28;46310;-68